Time;durP1;ratioP1;P1;durP2;ratioP2;P2;SDS_P1;SDS_P2;PMS_P1;PMS_P2;Temp;Humidity;BMP_temperature;BMP_pressure;BME280_temperature;BME280_humidity;BME280_pressure;Samples;Min_cycle;Max_cycle;Signal;HPM_P1;HPM_P2
2021/06/19 00:01:20;;;;;;;;;;;;;;;25.66;62.22;100835.44;5107962;28;1383;-69
2021/06/19 00:04:05;;;;;;;;;;;;;;;25.53;62.62;100826.81;5108049;28;1376;-70
2021/06/19 00:06:50;;;;;;;;;;;;;;;25.60;62.19;100830.63;5107424;28;1292;-67
2021/06/19 00:09:39;;;;;;;;;;;;;;;25.63;61.73;100824.19;5107925;28;1902;-69
2021/06/19 00:12:25;;;;;;;;;;;;;;;25.45;62.42;100827.41;5106397;28;1220;-70
2021/06/19 00:15:11;;;;;;;;;;;;;;;25.48;62.62;100821.84;5106972;28;1074;-69
2021/06/19 00:17:57;;;;;;;;;;;;;;;25.47;62.57;100824.63;5107412;28;1378;-68
2021/06/19 00:20:42;;;;;;;;;;;;;;;25.46;62.60;100814.91;5107899;28;1046;-68
2021/06/19 00:23:28;;;;;;;;;;;;;;;25.56;61.75;100810.53;5098334;28;1046;-67
2021/06/19 00:26:13;;;;;;;;;;;;;;;25.54;62.05;100794.66;5120980;28;1317;-66
2021/06/19 00:28:58;;;;;;;;;;;;;;;25.49;62.65;100802.22;5107548;28;957;-67
2021/06/19 00:31:45;;;;;;;;;;;;;;;25.43;63.08;100804.50;5092098;28;1366;-68
2021/06/19 00:34:30;;;;;;;;;;;;;;;25.44;63.25;100796.34;5092086;28;1185;-68
2021/06/19 00:37:16;;;;;;;;;;;;;;;25.47;63.52;100793.44;5107355;28;1247;-68
2021/06/19 00:40:03;;;;;;;;;;;;;;;25.47;64.23;100774.75;5092061;28;958;-69
2021/06/19 00:42:50;;;;;;;;;;;;;;;25.50;65.02;100777.22;5111056;28;1266;-68
2021/06/19 00:45:39;;;;;;;;;;;;;;;25.29;65.81;100783.50;5095518;28;1124;-68
2021/06/19 00:48:25;;;;;;;;;;;;;;;25.46;65.34;100778.44;5111132;28;1017;-68
2021/06/19 00:51:13;;;;;;;;;;;;;;;25.41;65.50;100780.63;5110573;28;1902;-68
2021/06/19 00:53:59;;;;;;;;;;;;;;;25.44;65.50;100777.69;5111655;28;1088;-68
2021/06/19 00:56:45;;;;;;;;;;;;;;;25.51;64.86;100778.91;5111234;28;1369;-67
2021/06/19 00:59:30;;;;;;;;;;;;;;;25.45;65.00;100775.88;5111331;28;1048;-67
2021/06/19 01:02:16;;;;;;;;;;;;;;;25.57;63.64;100777.53;5111396;28;1278;-69
2021/06/19 01:05:01;;;;;;;;;;;;;;;25.44;64.45;100782.22;5111444;28;975;-69
2021/06/19 01:07:46;;;;;;;;;;;;;;;25.43;64.12;100770.69;5095429;28;1290;-68
2021/06/19 01:10:32;;;;;;;;;;;;;;;25.42;64.52;100773.47;5111371;28;1902;-68
2021/06/19 01:13:17;;;;;;;;;;;;;;;25.41;64.50;100783.28;5110796;28;1380;-68
2021/06/19 01:16:02;;;;;;;;;;;;;;;25.41;64.68;100769.94;5110895;28;1262;-68
2021/06/19 01:18:57;;;;;;;;;;;;;;;25.43;65.31;100773.34;5096866;28;1072;-68
2021/06/19 01:21:42;;;;;;;;;;;;;;;25.35;65.87;100770.47;5109801;28;1405;-68
2021/06/19 01:24:31;;;;;;;;;;;;;;;25.40;65.57;100762.94;5109571;28;1004;-67
2021/06/19 01:27:16;;;;;;;;;;;;;;;25.34;66.02;100760.81;5095181;28;1378;-67
2021/06/19 01:30:05;;;;;;;;;;;;;;;25.33;65.40;100745.78;5110838;28;1930;-68
2021/06/19 01:32:50;;;;;;;;;;;;;;;25.32;65.18;100737.91;5110481;28;1233;-67
2021/06/19 01:35:36;;;;;;;;;;;;;;;25.43;65.71;100746.69;5111031;28;1136;-68
2021/06/19 01:38:22;;;;;;;;;;;;;;;25.28;65.69;100750.66;5110397;28;1291;-67
2021/06/19 01:41:13;;;;;;;;;;;;;;;25.30;65.60;100750.50;5110251;28;1284;-67
2021/06/19 01:44:16;;;;;;;;;;;;;;;25.38;65.43;100756.88;5109840;28;1041;-67
2021/06/19 01:47:02;;;;;;;;;;;;;;;25.32;65.21;100748.59;5110018;28;1268;-67
2021/06/19 01:49:47;;;;;;;;;;;;;;;25.26;65.39;100757.91;5110126;28;1982;-69
2021/06/19 01:52:33;;;;;;;;;;;;;;;25.24;64.92;100754.53;5094349;28;1281;-69
2021/06/19 01:55:18;;;;;;;;;;;;;;;25.08;65.32;100754.13;5110436;28;987;-69
2021/06/19 01:58:04;;;;;;;;;;;;;;;25.12;64.73;100755.56;5094469;28;1365;-68
2021/06/19 02:00:50;;;;;;;;;;;;;;;24.97;65.31;100756.84;5109829;28;580;-69
2021/06/19 02:03:36;;;;;;;;;;;;;;;24.87;65.30;100767.41;5109966;28;1152;-69
2021/06/19 02:06:21;;;;;;;;;;;;;;;25.05;64.71;100765.03;5110054;28;1383;-68
2021/06/19 02:09:07;;;;;;;;;;;;;;;25.05;64.53;100769.56;5109819;28;1036;-67
2021/06/19 02:11:52;;;;;;;;;;;;;;;25.04;64.24;100771.38;5109749;28;1906;-67
2021/06/19 02:14:37;;;;;;;;;;;;;;;25.00;64.32;100761.91;5094211;28;1052;-68
2021/06/19 02:17:22;;;;;;;;;;;;;;;25.01;64.76;100752.97;5109492;28;1256;-69
2021/06/19 02:20:09;;;;;;;;;;;;;;;24.94;64.93;100741.97;5109577;28;1081;-69
2021/06/19 02:22:56;;;;;;;;;;;;;;;25.12;64.12;100747.56;5108895;28;1287;-68
2021/06/19 02:25:41;;;;;;;;;;;;;;;25.02;64.55;100757.31;5109259;28;1027;-69
2021/06/19 02:28:27;;;;;;;;;;;;;;;25.19;63.58;100746.09;5093628;28;927;-71
2021/06/19 02:31:12;;;;;;;;;;;;;;;25.20;63.53;100742.44;5094173;28;1910;-68
2021/06/19 02:33:58;;;;;;;;;;;;;;;25.12;63.77;100744.91;5102014;28;883;-68
2021/06/19 02:36:43;;;;;;;;;;;;;;;25.06;64.27;100740.09;5109550;28;1263;-69
2021/06/19 02:39:29;;;;;;;;;;;;;;;25.12;63.87;100733.41;5107533;28;1133;-68
2021/06/19 02:42:14;;;;;;;;;;;;;;;25.13;63.96;100735.94;5096944;28;1353;-68
2021/06/19 02:44:59;;;;;;;;;;;;;;;25.05;64.43;100759.72;5092182;28;934;-68
2021/06/19 02:47:49;;;;;;;;;;;;;;;25.00;64.38;100785.91;5109422;28;1338;-69
2021/06/19 02:50:36;;;;;;;;;;;;;;;25.06;64.44;100813.88;5108882;28;1902;-69
2021/06/19 02:53:21;;;;;;;;;;;;;;;24.91;64.88;100807.97;5108807;28;1293;-69
2021/06/19 02:56:06;;;;;;;;;;;;;;;24.86;64.83;100778.22;5093612;28;1303;-68
2021/06/19 02:58:52;;;;;;;;;;;;;;;24.98;64.32;100747.88;5108858;28;658;-69
2021/06/19 03:01:37;;;;;;;;;;;;;;;25.06;63.88;100729.44;5108933;28;1223;-69
2021/06/19 03:04:22;;;;;;;;;;;;;;;24.99;64.31;100761.06;5108240;28;1259;-69
2021/06/19 03:07:07;;;;;;;;;;;;;;;24.96;64.51;100771.97;5108944;28;1353;-69
2021/06/19 03:09:54;;;;;;;;;;;;;;;24.97;64.18;100757.69;5108616;28;658;-68
2021/06/19 03:12:39;;;;;;;;;;;;;;;25.05;64.15;100783.69;5092963;28;1348;-67
2021/06/19 03:15:25;;;;;;;;;;;;;;;24.95;64.05;100793.44;5109030;28;1082;-66
2021/06/19 03:18:10;;;;;;;;;;;;;;;24.86;64.58;100781.72;5109437;28;1277;-67
2021/06/19 03:20:57;;;;;;;;;;;;;;;24.87;64.54;100774.56;5094910;28;1072;-67
2021/06/19 03:23:42;;;;;;;;;;;;;;;24.96;64.17;100771.13;5108579;28;716;-68
2021/06/19 03:26:27;;;;;;;;;;;;;;;24.91;63.50;100795.50;5108703;28;1351;-67
2021/06/19 03:29:13;;;;;;;;;;;;;;;24.94;63.96;100781.94;5106547;28;1141;-66
2021/06/19 03:31:58;;;;;;;;;;;;;;;25.05;63.26;100786.34;5108321;28;1905;-68
2021/06/19 03:34:43;;;;;;;;;;;;;;;25.00;63.22;100759.25;5108497;28;635;-68
2021/06/19 03:37:29;;;;;;;;;;;;;;;24.73;64.12;100745.50;5108648;28;1255;-68
2021/06/19 03:40:15;;;;;;;;;;;;;;;24.75;63.85;100756.88;5108101;28;647;-68
2021/06/19 03:43:02;;;;;;;;;;;;;;;24.98;63.17;100802.03;5092386;28;1284;-69
2021/06/19 03:45:47;;;;;;;;;;;;;;;24.89;63.01;100772.63;5107955;28;1113;-69
2021/06/19 03:48:32;;;;;;;;;;;;;;;24.93;62.80;100784.72;5107828;28;598;-68
2021/06/19 03:51:17;;;;;;;;;;;;;;;24.88;62.77;100794.91;5106558;28;1906;-68
2021/06/19 03:54:02;;;;;;;;;;;;;;;24.83;62.98;100815.75;5107772;28;824;-68
2021/06/19 03:56:48;;;;;;;;;;;;;;;24.82;62.85;100811.41;5108072;28;1228;-68
2021/06/19 03:59:33;;;;;;;;;;;;;;;24.99;62.19;100787.72;5108140;28;566;-67
2021/06/19 04:02:19;;;;;;;;;;;;;;;24.90;62.76;100766.31;5107928;28;1271;-67
2021/06/19 04:05:05;;;;;;;;;;;;;;;24.96;62.20;100795.97;5092098;28;687;-68
2021/06/19 04:07:51;;;;;;;;;;;;;;;24.92;62.50;100801.69;5107869;28;1292;-69
2021/06/19 04:10:36;;;;;;;;;;;;;;;24.80;62.90;100792.00;5107502;28;1968;-68
2021/06/19 04:13:21;;;;;;;;;;;;;;;24.71;63.05;100796.28;5107608;28;1327;-69
2021/06/19 04:16:09;;;;;;;;;;;;;;;24.86;62.42;100812.84;5091879;28;1316;-68
2021/06/19 04:18:55;;;;;;;;;;;;;;;24.85;62.43;100816.47;5107890;28;543;-69
2021/06/19 04:21:40;;;;;;;;;;;;;;;24.88;62.67;100817.06;5107782;28;1331;-69
2021/06/19 04:24:26;;;;;;;;;;;;;;;24.93;62.44;100820.19;5092318;28;612;-69
2021/06/19 04:27:15;;;;;;;;;;;;;;;24.73;62.97;100806.78;5108039;28;1228;-68
2021/06/19 04:30:01;;;;;;;;;;;;;;;24.87;62.61;100819.84;5091875;28;612;-68
2021/06/19 04:32:47;;;;;;;;;;;;;;;24.98;61.97;100814.50;5091976;28;1369;-68
2021/06/19 04:35:32;;;;;;;;;;;;;;;25.07;61.56;100800.44;5107328;28;1113;-68
2021/06/19 04:38:17;;;;;;;;;;;;;;;24.95;62.17;100780.97;5105201;28;1300;-68
2021/06/19 04:41:24;;;;;;;;;;;;;;;24.91;62.55;100765.34;5107747;28;1282;-68
2021/06/19 04:44:21;;;;;;;;;;;;;;;24.92;62.41;100756.41;5107270;28;842;-68
2021/06/19 04:47:07;;;;;;;;;;;;;;;24.97;62.53;100759.50;5106874;28;1445;-68
2021/06/19 04:49:53;;;;;;;;;;;;;;;24.86;62.85;100802.19;5105422;28;998;-67
2021/06/19 04:52:43;;;;;;;;;;;;;;;24.94;62.57;100807.72;5106993;28;1967;-67
2021/06/19 04:55:29;;;;;;;;;;;;;;;24.77;63.10;100803.75;5091779;28;1134;-68
2021/06/19 04:58:14;;;;;;;;;;;;;;;24.87;62.92;100803.88;5107462;28;1469;-68
2021/06/19 05:01:00;;;;;;;;;;;;;;;24.90;62.63;100788.47;5111303;28;1553;-69
2021/06/19 05:03:46;;;;;;;;;;;;;;;24.93;63.16;100798.88;5102643;28;1473;-69
2021/06/19 05:06:33;;;;;;;;;;;;;;;24.95;62.70;100796.09;5098482;28;1658;-69
2021/06/19 05:09:18;;;;;;;;;;;;;;;24.94;62.75;100805.91;5073259;28;1398;-69
2021/06/19 05:12:04;;;;;;;;;;;;;;;25.07;62.29;100788.91;5112394;28;1905;-69
2021/06/19 05:14:49;;;;;;;;;;;;;;;25.03;62.50;100783.00;5112603;28;652;-69
2021/06/19 05:17:35;;;;;;;;;;;;;;;25.02;62.15;100775.94;5110525;28;1526;-70
2021/06/19 05:20:23;;;;;;;;;;;;;;;24.65;63.37;100756.81;5116842;28;1099;-71
2021/06/19 05:23:10;;;;;;;;;;;;;;;24.80;62.96;100741.38;5103623;28;1354;-68
2021/06/19 05:25:55;;;;;;;;;;;;;;;24.82;62.77;100728.81;5090358;28;1109;-68
2021/06/19 05:28:40;;;;;;;;;;;;;;;24.70;62.94;100709.31;5106720;28;1145;-72
2021/06/19 05:31:26;;;;;;;;;;;;;;;24.74;62.76;100701.94;5093482;28;1902;-72
2021/06/19 05:34:11;;;;;;;;;;;;;;;24.86;61.70;100695.63;5092606;28;1145;-72
2021/06/19 05:36:57;;;;;;;;;;;;;;;24.74;61.78;100707.25;5089267;28;1247;-71
2021/06/19 05:39:42;;;;;;;;;;;;;;;24.99;60.39;100714.91;5108042;28;886;-71
2021/06/19 05:42:27;;;;;;;;;;;;;;;24.77;60.93;100723.00;5109247;28;1254;-70
2021/06/19 05:45:12;;;;;;;;;;;;;;;24.87;60.60;100730.13;5108249;28;1078;-71
2021/06/19 05:47:58;;;;;;;;;;;;;;;24.74;60.97;100734.75;5092241;28;1265;-67
2021/06/19 05:50:43;;;;;;;;;;;;;;;24.89;60.53;100740.66;5110419;28;1906;-70
2021/06/19 05:53:29;;;;;;;;;;;;;;;24.68;61.33;100726.41;5109044;28;1153;-69
2021/06/19 05:56:14;;;;;;;;;;;;;;;24.70;60.88;100716.47;5121201;27;1367;-69
2021/06/19 05:59:00;;;;;;;;;;;;;;;24.77;60.69;100707.84;5092325;27;1273;-72
2021/06/19 06:01:47;;;;;;;;;;;;;;;25.00;59.85;100743.25;5099108;27;1438;-70
2021/06/19 06:04:34;;;;;;;;;;;;;;;25.04;59.39;100763.38;5114063;27;1211;-72
2021/06/19 06:07:19;;;;;;;;;;;;;;;24.83;60.14;100773.13;5112873;27;1306;-73
2021/06/19 06:10:05;;;;;;;;;;;;;;;24.80;59.97;100779.53;5116763;27;1343;-74
2021/06/19 06:12:50;;;;;;;;;;;;;;;24.88;59.90;100805.56;5107665;27;1987;-71
2021/06/19 06:15:35;;;;;;;;;;;;;;;24.96;59.90;100809.28;5109069;28;963;-72
2021/06/19 06:18:21;;;;;;;;;;;;;;;25.07;60.11;100812.91;5109577;28;1272;-68
2021/06/19 06:21:07;;;;;;;;;;;;;;;25.13;59.98;100825.72;5110150;27;1407;-66
2021/06/19 06:23:54;;;;;;;;;;;;;;;25.23;59.33;100826.66;5109754;28;595;-66
2021/06/19 06:26:40;;;;;;;;;;;;;;;25.22;59.41;100804.47;5109407;28;1215;-66
2021/06/19 06:29:26;;;;;;;;;;;;;;;25.23;58.85;100808.81;5093727;28;639;-70
2021/06/19 06:32:11;;;;;;;;;;;;;;;25.28;58.58;100803.97;5108294;28;1914;-65
2021/06/19 06:34:56;;;;;;;;;;;;;;;25.28;58.75;100798.66;5107825;28;948;-66
2021/06/19 06:37:42;;;;;;;;;;;;;;;25.31;58.75;100794.88;5108878;28;1401;-67
2021/06/19 06:40:27;;;;;;;;;;;;;;;25.35;58.52;100788.31;5108807;28;1148;-66
2021/06/19 06:43:12;;;;;;;;;;;;;;;25.33;58.78;100780.44;5093308;28;1284;-65
2021/06/19 06:45:58;;;;;;;;;;;;;;;25.38;58.90;100759.53;5093244;28;973;-67
2021/06/19 06:48:43;;;;;;;;;;;;;;;25.38;59.04;100751.53;5108726;28;631;-69
2021/06/19 06:51:28;;;;;;;;;;;;;;;25.40;58.86;100754.94;5122105;27;1996;-68
2021/06/19 06:54:14;;;;;;;;;;;;;;;25.46;58.07;100745.56;5128963;27;730;-70
2021/06/19 06:56:59;;;;;;;;;;;;;;;25.46;58.56;100743.75;5129746;27;1198;-70
2021/06/19 06:59:44;;;;;;;;;;;;;;;25.49;58.49;100740.00;5129530;27;605;-70
2021/06/19 07:02:31;;;;;;;;;;;;;;;25.45;58.41;100744.72;5103164;28;1348;-69
2021/06/19 07:05:16;;;;;;;;;;;;;;;25.49;58.21;100759.53;5087310;28;669;-68
2021/06/19 07:08:05;;;;;;;;;;;;;;;25.51;58.04;100756.72;5086479;28;1268;-72
2021/06/19 07:10:50;;;;;;;;;;;;;;;25.51;57.70;100757.56;5071481;28;942;-72
2021/06/19 07:13:36;;;;;;;;;;;;;;;25.53;58.16;100765.47;5105138;27;1183;-72
2021/06/19 07:16:21;;;;;;;;;;;;;;;25.56;58.45;100769.69;5104252;28;1362;-73
2021/06/19 07:19:06;;;;;;;;;;;;;;;25.57;58.29;100760.69;5090655;28;1192;-71
2021/06/19 07:21:52;;;;;;;;;;;;;;;25.60;58.76;100774.59;5106880;28;1560;-69
2021/06/19 07:24:37;;;;;;;;;;;;;;;25.61;58.62;100780.78;5105686;28;903;-68
2021/06/19 07:27:23;;;;;;;;;;;;;;;25.60;59.36;100787.09;5105354;28;1326;-69
2021/06/19 07:30:09;;;;;;;;;;;;;;;25.60;58.97;100792.44;5106053;28;669;-68
2021/06/19 07:32:55;;;;;;;;;;;;;;;25.61;59.39;100794.13;5106271;28;1902;-66
2021/06/19 07:35:41;;;;;;;;;;;;;;;25.65;58.95;100795.56;5106569;28;932;-68
2021/06/19 07:38:29;;;;;;;;;;;;;;;25.66;58.62;100802.56;5100145;27;1051;-67
2021/06/19 07:41:14;;;;;;;;;;;;;;;25.68;58.60;100811.31;5106632;28;1272;-67
2021/06/19 07:43:59;;;;;;;;;;;;;;;25.69;58.54;100815.66;5106529;28;1040;-69
2021/06/19 07:46:49;;;;;;;;;;;;;;;25.69;58.34;100835.19;5090533;28;1275;-69
2021/06/19 07:49:35;;;;;;;;;;;;;;;25.79;58.60;100813.91;5107173;28;1177;-70
2021/06/19 07:52:20;;;;;;;;;;;;;;;25.79;58.76;100824.56;5102770;28;1910;-73
2021/06/19 07:55:06;;;;;;;;;;;;;;;25.83;58.48;100836.69;5101379;28;1153;-73
2021/06/19 07:57:51;;;;;;;;;;;;;;;25.83;58.77;100824.19;5106067;28;1275;-72
2021/06/19 08:00:37;;;;;;;;;;;;;;;25.83;58.92;100796.66;5089797;28;1118;-68
2021/06/19 08:03:22;;;;;;;;;;;;;;;25.84;59.09;100795.69;5107143;28;1637;-71
2021/06/19 08:06:07;;;;;;;;;;;;;;;25.89;59.22;100786.31;5107238;28;1451;-71
2021/06/19 08:08:54;;;;;;;;;;;;;;;25.90;58.95;100768.47;5106618;28;951;-67
2021/06/19 08:11:39;;;;;;;;;;;;;;;25.88;59.08;100733.06;5102286;28;1983;-67
2021/06/19 08:14:25;;;;;;;;;;;;;;;25.89;59.27;100750.78;5094458;28;1141;-67
2021/06/19 08:17:23;;;;;;;;;;;;;;;25.90;59.36;100737.28;5101067;28;1357;-68
2021/06/19 08:20:10;;;;;;;;;;;;;;;25.93;59.70;100722.84;5107090;28;1034;-67
2021/06/19 08:22:55;;;;;;;;;;;;;;;25.96;59.30;100730.59;5106553;28;1300;-70
2021/06/19 08:25:40;;;;;;;;;;;;;;;25.97;59.45;100745.59;5106693;28;1174;-69
2021/06/19 08:28:26;;;;;;;;;;;;;;;25.98;59.52;100744.63;5106209;28;1199;-71
2021/06/19 08:31:11;;;;;;;;;;;;;;;26.12;60.82;100740.72;5077135;28;1608;-71
2021/06/19 08:33:56;;;;;;;;;;;;;;;26.14;60.33;100731.63;5106373;28;1042;-70
2021/06/19 08:36:43;;;;;;;;;;;;;;;26.08;59.99;100729.50;5107489;28;1347;-67
2021/06/19 08:39:28;;;;;;;;;;;;;;;26.07;59.96;100734.00;5107578;28;615;-63
2021/06/19 08:42:13;;;;;;;;;;;;;;;26.15;60.61;100735.13;5107596;28;1341;-66
2021/06/19 08:44:59;;;;;;;;;;;;;;;26.17;60.44;100722.53;5092089;28;702;-66
2021/06/19 08:47:45;;;;;;;;;;;;;;;26.14;60.10;100710.28;5106318;28;1274;-68
2021/06/19 08:50:31;;;;;;;;;;;;;;;26.22;60.14;100698.94;5091252;28;1111;-67
2021/06/19 08:53:18;;;;;;;;;;;;;;;26.22;59.67;100693.59;5106312;28;1909;-69
2021/06/19 08:56:03;;;;;;;;;;;;;;;26.24;60.31;100681.78;5106903;28;1296;-76
2021/06/19 08:58:49;;;;;;;;;;;;;;;26.24;60.61;100681.78;5107217;28;632;-66
2021/06/19 09:01:34;;;;;;;;;;;;;;;26.24;60.03;100686.28;5105079;28;1486;-71
2021/06/19 09:04:20;;;;;;;;;;;;;;;26.31;60.32;100684.75;5106703;28;1306;-69
2021/06/19 09:07:05;;;;;;;;;;;;;;;26.27;59.59;100694.88;5107023;28;1282;-71
2021/06/19 09:09:51;;;;;;;;;;;;;;;26.29;59.87;100705.44;5105451;28;923;-67
2021/06/19 09:12:36;;;;;;;;;;;;;;;26.31;59.84;100720.34;5108028;28;1894;-71
2021/06/19 09:15:21;;;;;;;;;;;;;;;26.40;61.30;100707.97;5110379;27;1275;-70
2021/06/19 09:18:14;;;;;;;;;;;;;;;26.38;60.54;100689.44;5109176;27;1326;-66
2021/06/19 09:21:01;;;;;;;;;;;;;;;26.35;59.48;100723.56;5108410;28;1271;-63
2021/06/19 09:23:47;;;;;;;;;;;;;;;26.35;59.39;100747.63;5101789;28;1046;-62
2021/06/19 09:26:33;;;;;;;;;;;;;;;26.29;59.45;100716.97;5091626;28;1232;-63
2021/06/19 09:29:18;;;;;;;;;;;;;;;26.32;58.97;100708.69;5106545;28;942;-66
2021/06/19 09:32:06;;;;;;;;;;;;;;;26.36;60.19;100766.16;5107657;28;1902;-69
2021/06/19 09:35:08;;;;;;;;;;;;;;;26.36;60.09;100765.31;5093109;28;705;-69
2021/06/19 09:37:55;;;;;;;;;;;;;;;26.32;60.99;100732.72;5108909;28;1263;-67
2021/06/19 09:40:41;;;;;;;;;;;;;;;26.33;59.97;100774.44;5108479;28;1082;-71
2021/06/19 09:43:28;;;;;;;;;;;;;;;26.29;60.58;100791.72;5106109;27;1121;-69
2021/06/19 09:46:13;;;;;;;;;;;;;;;26.25;60.74;100720.88;5107751;28;1289;-65
2021/06/19 09:49:13;;;;;;;;;;;;;;;26.28;60.26;100715.25;5103758;28;981;-74
2021/06/19 09:51:59;;;;;;;;;;;;;;;26.31;60.14;100773.75;5107352;28;1910;-72
2021/06/19 09:54:56;;;;;;;;;;;;;;;26.33;60.41;100753.06;5088835;28;694;-69
2021/06/19 09:57:42;;;;;;;;;;;;;;;26.34;60.50;100713.88;5088780;28;1321;-67
2021/06/19 10:00:37;;;;;;;;;;;;;;;26.35;60.90;100735.09;5107616;28;1213;-68
2021/06/19 10:03:22;;;;;;;;;;;;;;;26.36;60.64;100749.28;5083357;28;1626;-68
2021/06/19 10:06:07;;;;;;;;;;;;;;;26.35;60.84;100727.09;5087564;28;1366;-67
2021/06/19 10:08:53;;;;;;;;;;;;;;;26.34;60.92;100709.38;5087611;28;714;-68
2021/06/19 10:11:39;;;;;;;;;;;;;;;26.32;61.13;100708.69;5088880;28;1906;-68
2021/06/19 10:14:25;;;;;;;;;;;;;;;26.32;60.92;100723.84;5080546;28;1133;-66
2021/06/19 10:17:13;;;;;;;;;;;;;;;26.32;60.93;100727.38;5078958;28;1353;-66
2021/06/19 10:20:02;;;;;;;;;;;;;;;26.39;60.73;100723.16;5076568;28;1025;-65
2021/06/19 10:22:48;;;;;;;;;;;;;;;26.38;61.02;100721.47;5071846;28;1326;-63
2021/06/19 10:25:33;;;;;;;;;;;;;;;26.31;61.67;100724.81;5079968;28;1630;-67
2021/06/19 10:28:18;;;;;;;;;;;;;;;26.34;61.14;100709.38;5068652;28;1280;-64
2021/06/19 10:31:04;;;;;;;;;;;;;;;26.35;60.71;100702.22;5067729;28;1228;-66
2021/06/19 10:33:49;;;;;;;;;;;;;;;26.36;60.58;100711.91;5065522;28;1914;-66
2021/06/19 10:36:38;;;;;;;;;;;;;;;26.38;61.23;100716.13;5067556;28;1282;-64
2021/06/19 10:39:36;;;;;;;;;;;;;;;26.42;61.12;100698.84;5072618;28;1489;-67
2021/06/19 10:42:26;;;;;;;;;;;;;;;26.51;59.50;100694.50;5051121;28;1229;-67
2021/06/19 10:45:15;;;;;;;;;;;;;;;26.53;60.82;100709.41;5072045;28;1183;-67
2021/06/19 10:48:05;;;;;;;;;;;;;;;26.54;59.70;100716.44;5069717;28;1385;-66
2021/06/19 10:51:16;;;;;;;;;;;;;;;26.55;61.32;100706.59;5081443;28;1173;-68
2021/06/19 10:54:12;;;;;;;;;;;;;;;26.51;61.02;100714.03;5082023;28;1894;-65
2021/06/19 10:56:58;;;;;;;;;;;;;;;26.51;60.07;100723.88;5076447;28;1370;-68
2021/06/19 10:59:43;;;;;;;;;;;;;;;26.48;60.93;100732.16;5076590;28;988;-65
2021/06/19 11:02:49;;;;;;;;;;;;;;;26.52;60.98;100739.78;5065815;27;1447;-65
2021/06/19 11:05:41;;;;;;;;;;;;;;;26.56;60.69;100745.69;5112312;27;937;-64
2021/06/19 11:08:27;;;;;;;;;;;;;;;26.53;60.47;100744.16;5128132;27;811;-63
2021/06/19 11:11:12;;;;;;;;;;;;;;;26.54;60.27;100747.63;5128442;27;1372;-64
2021/06/19 11:13:57;;;;;;;;;;;;;;;26.56;61.63;100748.38;5121530;27;1897;-65
2021/06/19 11:16:44;;;;;;;;;;;;;;;26.60;60.84;100758.63;5099494;28;1427;-66
2021/06/19 11:19:34;;;;;;;;;;;;;;;26.59;61.08;100772.13;5106844;28;1556;-71
2021/06/19 11:22:35;;;;;;;;;;;;;;;26.57;61.01;100763.38;5104532;28;1296;-68
2021/06/19 11:25:33;;;;;;;;;;;;;;;26.58;61.99;100763.25;5108630;27;1211;-66
2021/06/19 11:28:22;;;;;;;;;;;;;;;26.60;61.20;100769.31;5107405;27;1374;-64
2021/06/19 11:31:17;;;;;;;;;;;;;;;26.60;61.29;100702.53;5105794;28;1279;-67
2021/06/19 11:34:03;;;;;;;;;;;;;;;26.61;61.77;100690.00;5104842;27;1906;-64
2021/06/19 11:36:57;;;;;;;;;;;;;;;26.60;62.52;100664.28;5103601;28;1377;-65
2021/06/19 11:39:43;;;;;;;;;;;;;;;26.76;62.63;100628.97;5108606;27;1417;-65
2021/06/19 11:42:28;;;;;;;;;;;;;;;26.85;61.92;100641.53;5111670;27;1384;-65
2021/06/19 11:45:14;;;;;;;;;;;;;;;26.83;61.11;100651.50;5105785;28;943;-70
2021/06/19 11:48:04;;;;;;;;;;;;;;;26.73;61.57;100683.53;5102839;28;1621;-73
2021/06/19 11:50:50;;;;;;;;;;;;;;;26.80;63.00;100697.22;5107031;27;1436;-69
2021/06/19 11:53:36;;;;;;;;;;;;;;;26.73;62.11;100701.41;5091469;28;1973;-70
2021/06/19 11:56:25;;;;;;;;;;;;;;;26.70;61.50;100699.00;5105648;28;1192;-72
2021/06/19 11:59:11;;;;;;;;;;;;;;;26.71;62.52;100676.66;5103603;27;1168;-73
2021/06/19 12:01:57;;;;;;;;;;;;;;;26.73;61.08;100685.38;5105440;28;1345;-68
2021/06/19 12:04:42;;;;;;;;;;;;;;;26.74;61.42;100706.63;5106323;28;1623;-67
2021/06/19 12:07:28;;;;;;;;;;;;;;;26.71;61.19;100727.44;5106289;28;1350;-71
2021/06/19 12:10:26;;;;;;;;;;;;;;;26.70;62.14;100741.75;5104992;28;1015;-76
2021/06/19 12:13:12;;;;;;;;;;;;;;;26.71;61.21;100749.66;5104652;28;2001;-76
2021/06/19 12:15:58;;;;;;;;;;;;;;;26.74;61.77;100752.03;5107012;28;1164;-69
2021/06/19 12:18:47;;;;;;;;;;;;;;;26.77;62.39;100759.78;5108504;28;1051;-78
2021/06/19 12:21:33;;;;;;;;;;;;;;;26.78;61.85;100763.31;5103915;28;1347;-69
2021/06/19 12:24:18;;;;;;;;;;;;;;;26.75;61.55;100766.25;5114200;28;1217;-69
2021/06/19 12:27:04;;;;;;;;;;;;;;;26.77;62.27;100769.63;5105869;28;1250;-67
2021/06/19 12:29:52;;;;;;;;;;;;;;;26.75;61.83;100747.56;5107223;28;1058;-68
2021/06/19 12:32:42;;;;;;;;;;;;;;;26.78;62.97;100745.41;5106049;28;1906;-70
2021/06/19 12:35:27;;;;;;;;;;;;;;;26.73;61.34;100736.13;5108558;28;1051;-64
2021/06/19 12:38:17;;;;;;;;;;;;;;;26.67;60.38;100736.69;5106603;28;1306;-64
2021/06/19 12:41:04;;;;;;;;;;;;;;;26.59;59.37;100756.94;5110912;28;1328;-64
2021/06/19 12:43:54;;;;;;;;;;;;;;;26.54;58.42;100763.66;5108759;28;1063;-65
2021/06/19 12:46:40;;;;;;;;;;;;;;;26.48;57.76;100766.88;5111457;27;1342;-65
2021/06/19 12:49:26;;;;;;;;;;;;;;;26.44;57.16;100769.00;5114699;27;1180;-66
2021/06/19 12:52:11;;;;;;;;;;;;;;;26.42;56.95;100789.66;5094081;28;1397;-66
2021/06/19 12:55:26;;;;;;;;;;;;;;;26.42;56.47;100807.50;5107583;28;1655;-63
2021/06/19 12:58:11;;;;;;;;;;;;;;;26.33;56.16;100814.50;5098240;28;1552;-64
2021/06/19 13:00:57;;;;;;;;;;;;;;;26.29;55.17;100828.25;5107952;28;1449;-63
2021/06/19 13:03:52;;;;;;;;;;;;;;;26.23;54.54;100829.66;5107452;28;1616;-64
2021/06/19 13:06:43;;;;;;;;;;;;;;;26.20;54.41;100845.09;5106535;28;1356;-63
2021/06/19 13:09:44;;;;;;;;;;;;;;;26.19;54.43;100859.41;5107957;28;1113;-64
2021/06/19 13:12:44;;;;;;;;;;;;;;;26.15;53.85;100832.13;5108794;28;1905;-63
2021/06/19 13:15:30;;;;;;;;;;;;;;;26.05;54.54;100796.50;5108650;28;1053;-62
2021/06/19 13:18:16;;;;;;;;;;;;;;;26.09;53.97;100769.41;5100579;27;1404;-63
2021/06/19 13:21:04;;;;;;;;;;;;;;;26.12;54.14;100759.41;5102070;27;1351;-63
2021/06/19 13:23:49;;;;;;;;;;;;;;;26.11;54.14;100739.06;5108563;27;1581;-66
2021/06/19 13:26:35;;;;;;;;;;;;;;;26.11;54.36;100718.56;5108394;28;1287;-65
2021/06/19 13:29:21;;;;;;;;;;;;;;;26.06;54.78;100710.09;5107949;28;1030;-65
2021/06/19 13:32:08;;;;;;;;;;;;;;;26.06;54.26;100702.09;5107524;28;1196;-64
2021/06/19 13:34:58;;;;;;;;;;;;;;;26.02;54.38;100698.03;5105870;28;959;-63
2021/06/19 13:37:43;;;;;;;;;;;;;;;26.02;54.18;100688.16;5105589;27;1364;-65
2021/06/19 13:40:28;;;;;;;;;;;;;;;26.00;54.49;100687.47;5091791;28;1053;-64
2021/06/19 13:43:14;;;;;;;;;;;;;;;25.99;54.22;100676.94;5105631;28;1366;-65
2021/06/19 13:45:59;;;;;;;;;;;;;;;26.02;54.07;100682.81;5106139;28;1090;-65
2021/06/19 13:48:44;;;;;;;;;;;;;;;26.00;54.67;100684.78;5090514;28;1110;-63
2021/06/19 13:51:30;;;;;;;;;;;;;;;26.02;54.44;100674.00;5108139;28;1243;-63
2021/06/19 13:54:15;;;;;;;;;;;;;;;26.03;54.47;100678.34;5105554;28;1906;-63
2021/06/19 13:57:00;;;;;;;;;;;;;;;26.02;54.50;100687.34;5106167;28;1350;-63
2021/06/19 13:59:47;;;;;;;;;;;;;;;26.01;54.88;100699.00;5107346;28;983;-62
2021/06/19 14:02:32;;;;;;;;;;;;;;;25.95;54.94;100712.88;5107559;28;1674;-66
2021/06/19 14:05:17;;;;;;;;;;;;;;;25.99;54.70;100724.97;5104485;28;1023;-67
2021/06/19 14:08:03;;;;;;;;;;;;;;;25.99;55.09;100733.00;5089361;28;1395;-66
2021/06/19 14:10:48;;;;;;;;;;;;;;;25.95;54.81;100745.75;5105839;28;1054;-65
2021/06/19 14:13:34;;;;;;;;;;;;;;;25.94;55.05;100749.38;5103320;28;1909;-67
2021/06/19 14:16:19;;;;;;;;;;;;;;;25.92;54.52;100753.16;5088520;28;1334;-63
2021/06/19 14:19:05;;;;;;;;;;;;;;;25.94;54.89;100756.53;5104047;28;991;-65
2021/06/19 14:21:50;;;;;;;;;;;;;;;25.98;55.03;100749.97;5106561;28;1287;-67
2021/06/19 14:24:36;;;;;;;;;;;;;;;25.98;54.37;100749.97;5105529;27;963;-69
2021/06/19 14:27:23;;;;;;;;;;;;;;;25.99;54.40;100746.34;5102863;28;1507;-72
2021/06/19 14:30:08;;;;;;;;;;;;;;;25.99;54.71;100744.47;5091643;28;1053;-69